Time;durP1;ratioP1;P1;durP2;ratioP2;P2;SDS_P1;SDS_P2;PMS_P1;PMS_P2;Temp;Humidity;BMP_temperature;BMP_pressure;BME280_temperature;BME280_humidity;BME280_pressure;Samples;Min_cycle;Max_cycle;Signal;HPM_P1;HPM_P2
2023/12/17 00:02:20;;;;;;;16.10;11.05;;;9.20;93.60;;;;;;5073886;28;20028;-52
2023/12/17 00:04:48;;;;;;;19.23;11.27;;;9.20;93.60;;;;;;5073602;28;20525;-56
2023/12/17 00:07:14;;;;;;;20.02;11.75;;;9.20;93.60;;;;;;5093371;28;20060;-53
2023/12/17 00:09:40;;;;;;;16.50;12.57;;;9.20;93.60;;;;;;5094019;28;20043;-52
2023/12/17 00:12:07;;;;;;;15.75;11.18;;;9.20;93.60;;;;;;5082522;28;20077;-55
2023/12/17 00:14:35;;;;;;;16.67;10.55;;;9.20;93.60;;;;;;5072640;28;20031;-54
2023/12/17 00:17:02;;;;;;;16.42;10.65;;;9.20;93.60;;;;;;5073628;28;20082;-55
2023/12/17 00:19:28;;;;;;;18.67;11.13;;;9.20;93.60;;;;;;5073449;28;20029;-55
2023/12/17 00:21:53;;;;;;;14.32;10.05;;;9.20;93.70;;;;;;5073425;28;20034;-57
2023/12/17 00:24:20;;;;;;;19.77;13.93;;;9.20;93.80;;;;;;5086551;28;20034;-56
2023/12/17 00:26:47;;;;;;;16.10;11.07;;;9.20;93.70;;;;;;5080932;28;20036;-52
2023/12/17 00:29:13;;;;;;;14.52;11.18;;;9.20;93.70;;;;;;5073334;28;20120;-51
2023/12/17 00:31:39;;;;;;;15.25;10.32;;;9.20;93.80;;;;;;5072890;28;20381;-56
2023/12/17 00:34:06;;;;;;;17.40;10.10;;;9.20;93.70;;;;;;5073799;28;20035;-54
2023/12/17 00:36:33;;;;;;;15.68;10.88;;;9.20;93.70;;;;;;5073411;28;20027;-55
2023/12/17 00:39:01;;;;;;;12.45;10.13;;;9.20;93.70;;;;;;5073261;28;20031;-51
2023/12/17 00:41:29;;;;;;;19.23;11.23;;;9.20;93.70;;;;;;5073160;28;20082;-54
2023/12/17 00:43:55;;;;;;;15.60;10.93;;;9.20;93.70;;;;;;5073013;28;20289;-53
2023/12/17 00:46:20;;;;;;;17.15;10.27;;;9.20;93.80;;;;;;5073177;28;20021;-55
2023/12/17 00:48:48;;;;;;;14.68;10.70;;;9.20;93.80;;;;;;5073003;28;20046;-52
2023/12/17 00:51:15;;;;;;;19.15;10.65;;;9.20;93.80;;;;;;5073098;28;20028;-55
2023/12/17 00:53:43;;;;;;;16.98;10.82;;;9.20;93.80;;;;;;5055910;28;20103;-55
2023/12/17 00:56:10;;;;;;;18.02;9.57;;;9.20;93.90;;;;;;5073460;28;20052;-54
2023/12/17 00:58:37;;;;;;;15.65;10.32;;;9.20;93.90;;;;;;5048680;28;20078;-53
2023/12/17 01:01:03;;;;;;;18.75;10.82;;;9.20;93.90;;;;;;5073057;28;20032;-52
2023/12/17 01:03:30;;;;;;;15.73;10.32;;;9.20;93.80;;;;;;5072710;28;20039;-52
2023/12/17 01:05:57;;;;;;;16.50;10.57;;;9.20;93.90;;;;;;5071961;28;20032;-54
2023/12/17 01:08:25;;;;;;;15.02;10.15;;;9.30;93.90;;;;;;5072527;28;20127;-55
2023/12/17 01:10:51;;;;;;;18.20;10.82;;;9.30;93.80;;;;;;5072629;28;20557;-52
2023/12/17 01:13:18;;;;;;;15.82;9.85;;;9.30;93.80;;;;;;5072958;28;20107;-54
2023/12/17 01:15:45;;;;;;;15.00;10.25;;;9.30;93.80;;;;;;5073297;28;20099;-54
2023/12/17 01:18:12;;;;;;;14.60;10.65;;;9.30;93.80;;;;;;5072738;28;20024;-51
2023/12/17 01:20:40;;;;;;;13.40;10.38;;;9.30;93.80;;;;;;5073047;28;20033;-52
2023/12/17 01:23:07;;;;;;;13.90;10.70;;;9.30;93.70;;;;;;5075345;28;20036;-51
2023/12/17 01:25:35;;;;;;;22.08;10.60;;;9.30;93.60;;;;;;5078785;28;20044;-53
2023/12/17 01:28:02;;;;;;;15.43;9.82;;;9.30;93.70;;;;;;5072938;28;20035;-53
2023/12/17 01:30:30;;;;;;;13.63;9.80;;;9.30;93.70;;;;;;5072953;28;20446;-54
2023/12/17 01:32:57;;;;;;;16.75;10.93;;;9.30;93.70;;;;;;5072360;28;20035;-53
2023/12/17 01:35:23;;;;;;;11.18;9.52;;;9.30;93.80;;;;;;5073107;28;20109;-54
2023/12/17 01:37:51;;;;;;;16.75;10.07;;;9.30;93.80;;;;;;5072598;28;20029;-50
2023/12/17 01:40:19;;;;;;;15.77;10.85;;;9.40;93.70;;;;;;5072764;28;20087;-50
2023/12/17 01:42:46;;;;;;;14.82;9.90;;;9.30;93.70;;;;;;5073021;28;20593;-53
2023/12/17 01:45:13;;;;;;;14.60;9.60;;;9.40;93.80;;;;;;5072321;28;20028;-53
2023/12/17 01:47:41;;;;;;;14.00;9.90;;;9.30;93.70;;;;;;5072972;28;20028;-55
2023/12/17 01:50:08;;;;;;;13.88;10.02;;;9.30;93.70;;;;;;5072223;28;20123;-53
2023/12/17 01:52:35;;;;;;;13.07;9.52;;;9.40;93.80;;;;;;5055485;28;20033;-53
2023/12/17 01:55:01;;;;;;;14.25;9.98;;;9.40;93.70;;;;;;5071745;28;20543;-51
2023/12/17 01:57:28;;;;;;;16.35;9.60;;;9.40;93.80;;;;;;5072883;28;20122;-52
2023/12/17 01:59:55;;;;;;;15.93;9.98;;;9.30;93.80;;;;;;5069206;28;20674;-51
2023/12/17 02:02:23;;;;;;;18.23;9.65;;;9.40;93.80;;;;;;5072816;28;20096;-53
2023/12/17 02:04:50;;;;;;;11.70;8.75;;;9.30;93.80;;;;;;5072382;28;20035;-52
2023/12/17 02:07:16;;;;;;;13.65;9.52;;;9.40;93.80;;;;;;5072309;28;20052;-53
2023/12/17 02:09:48;;;;;;;13.48;9.40;;;9.30;93.80;;;;;;5072236;28;20059;-51
2023/12/17 02:12:40;;;;;;;15.02;8.73;;;9.30;93.80;;;;;;5072124;28;20030;-54
2023/12/17 02:15:07;;;;;;;15.32;9.20;;;9.30;93.90;;;;;;5069310;28;20044;-50
2023/12/17 02:17:33;;;;;;;12.75;8.63;;;9.40;93.90;;;;;;5074642;28;20111;-53
2023/12/17 02:20:01;;;;;;;14.93;9.45;;;9.40;93.90;;;;;;5075740;28;20224;-52
2023/12/17 02:22:30;;;;;;;15.05;9.40;;;9.40;93.90;;;;;;5075985;28;20034;-51
2023/12/17 02:24:57;;;;;;;19.83;9.52;;;9.40;93.90;;;;;;5092308;28;20103;-54
2023/12/17 02:27:26;;;;;;;12.82;9.35;;;9.30;93.80;;;;;;5075818;28;20109;-55
2023/12/17 02:29:53;;;;;;;14.63;8.93;;;9.40;93.90;;;;;;5075506;28;20120;-55
2023/12/17 02:32:21;;;;;;;13.48;8.98;;;9.40;93.80;;;;;;5076151;28;20034;-54
2023/12/17 02:34:52;;;;;;;17.48;9.65;;;9.40;93.80;;;;;;5041459;28;20375;-52
2023/12/17 02:37:20;;;;;;;12.43;9.00;;;9.40;93.80;;;;;;5057721;28;20047;-50
2023/12/17 02:39:47;;;;;;;11.70;9.43;;;9.40;93.70;;;;;;5075450;28;20465;-52
2023/12/17 02:42:17;;;;;;;11.93;8.77;;;9.40;93.70;;;;;;5075507;28;20044;-53
2023/12/17 02:44:46;;;;;;;13.57;9.80;;;9.40;93.80;;;;;;5075580;28;20039;-53
2023/12/17 02:47:13;;;;;;;13.23;8.80;;;9.40;93.70;;;;;;5075512;28;20016;-52
2023/12/17 02:49:41;;;;;;;15.77;9.90;;;9.40;93.80;;;;;;5058127;28;20032;-53
2023/12/17 02:52:08;;;;;;;13.57;9.15;;;9.40;93.70;;;;;;5057645;28;20108;-52
2023/12/17 02:54:35;;;;;;;16.15;9.40;;;9.40;93.70;;;;;;5074891;28;20126;-51
2023/12/17 02:57:04;;;;;;;16.67;8.73;;;9.40;93.70;;;;;;5075780;28;20445;-50
2023/12/17 02:59:31;;;;;;;16.05;8.38;;;9.40;93.70;;;;;;5075086;28;20032;-50
2023/12/17 03:02:02;;;;;;;17.02;8.85;;;9.40;93.70;;;;;;5057445;28;20040;-50
2023/12/17 03:04:29;;;;;;;14.05;9.13;;;9.40;93.70;;;;;;5074967;28;20060;-53
2023/12/17 03:06:57;;;;;;;11.80;9.35;;;9.40;93.70;;;;;;5074946;28;20059;-51
2023/12/17 03:09:24;;;;;;;11.07;7.93;;;9.40;93.60;;;;;;5074842;28;20032;-53
2023/12/17 03:11:51;;;;;;;14.45;9.02;;;9.40;93.60;;;;;;5075330;28;20029;-52
2023/12/17 03:14:18;;;;;;;12.25;8.15;;;9.40;93.70;;;;;;5074680;28;20122;-54
2023/12/17 03:16:45;;;;;;;9.35;7.55;;;9.40;93.60;;;;;;5074652;28;20035;-51
2023/12/17 03:19:12;;;;;;;13.73;8.43;;;9.40;93.60;;;;;;5074802;28;20024;-50
2023/12/17 03:21:39;;;;;;;13.18;8.10;;;9.40;93.50;;;;;;5057356;28;20040;-50
2023/12/17 03:24:06;;;;;;;12.57;7.93;;;9.40;93.40;;;;;;5085928;28;20032;-55
2023/12/17 03:26:33;;;;;;;15.63;8.77;;;9.40;93.50;;;;;;5095135;28;20346;-50
2023/12/17 03:28:59;;;;;;;11.77;7.50;;;9.40;93.50;;;;;;5094077;28;20648;-51
2023/12/17 03:31:27;;;;;;;12.10;8.57;;;9.40;93.60;;;;;;5086398;28;20044;-50
2023/12/17 03:33:55;;;;;;;15.23;9.52;;;9.40;93.50;;;;;;5074380;28;20020;-53
2023/12/17 03:36:22;;;;;;;12.52;8.70;;;9.40;93.50;;;;;;5074327;28;20033;-50
2023/12/17 03:38:47;;;;;;;19.25;10.25;;;9.40;93.50;;;;;;5074505;28;20063;-55
2023/12/17 03:41:28;;;;;;;14.30;8.10;;;9.40;93.50;;;;;;5074147;28;20056;-51
2023/12/17 03:43:57;;;;;;;10.95;8.23;;;9.40;93.50;;;;;;5074210;28;20108;-53
2023/12/17 03:46:25;;;;;;;11.65;8.10;;;9.40;93.50;;;;;;5074038;28;20025;-52
2023/12/17 03:48:53;;;;;;;11.95;8.00;;;9.40;93.50;;;;;;5075971;28;20476;-56
2023/12/17 03:51:21;;;;;;;10.10;7.43;;;9.40;93.50;;;;;;5087100;28;20055;-53
2023/12/17 03:53:48;;;;;;;9.93;7.68;;;9.40;93.50;;;;;;5074146;28;20058;-51
2023/12/17 03:56:16;;;;;;;12.57;7.95;;;9.40;93.50;;;;;;5073884;28;20349;-51
2023/12/17 03:58:43;;;;;;;13.70;7.50;;;9.40;93.50;;;;;;5074033;28;20027;-49
2023/12/17 04:01:10;;;;;;;14.73;8.43;;;9.40;93.50;;;;;;5073699;28;20037;-50
2023/12/17 04:03:37;;;;;;;9.57;7.22;;;9.40;93.50;;;;;;5073550;28;20131;-52
2023/12/17 04:06:06;;;;;;;11.75;7.85;;;9.40;93.50;;;;;;5074007;28;20052;-52
2023/12/17 04:08:34;;;;;;;11.65;8.38;;;9.40;93.40;;;;;;5052723;28;20087;-53
2023/12/17 04:11:02;;;;;;;12.63;7.70;;;9.50;93.40;;;;;;5070995;28;20032;-50
2023/12/17 04:13:27;;;;;;;19.20;8.02;;;9.40;93.40;;;;;;5056351;28;20043;-51
2023/12/17 04:15:55;;;;;;;9.95;7.60;;;9.40;93.40;;;;;;5073920;28;20020;-51
2023/12/17 04:18:22;;;;;;;12.25;8.07;;;9.40;93.40;;;;;;5073430;28;20021;-52
2023/12/17 04:20:49;;;;;;;11.45;7.15;;;9.40;93.50;;;;;;5073710;28;20107;-51
2023/12/17 04:23:16;;;;;;;13.52;7.78;;;9.40;93.40;;;;;;5077024;28;20024;-54
2023/12/17 04:25:41;;;;;;;13.40;7.88;;;9.40;93.40;;;;;;5093414;28;20082;-51
2023/12/17 04:28:08;;;;;;;14.02;7.25;;;9.50;93.40;;;;;;5092919;28;20028;-55
2023/12/17 04:30:35;;;;;;;12.30;7.40;;;9.50;93.30;;;;;;5093376;28;20020;-51
2023/12/17 04:33:04;;;;;;;10.82;7.70;;;9.50;93.20;;;;;;5075064;28;20055;-52
2023/12/17 04:35:34;;;;;;;14.80;9.30;;;9.50;93.20;;;;;;5092974;28;20024;-51
2023/12/17 04:38:01;;;;;;;;;;;9.50;93.10;;;;;;5087733;28;20257;-50
2023/12/17 04:40:28;;;;;;;11.32;7.30;;;9.40;93.10;;;;;;5071907;28;19909;-51
2023/12/17 04:42:56;;;;;;;12.27;8.00;;;9.50;93.10;;;;;;5073257;28;20032;-50
2023/12/17 04:45:23;;;;;;;12.43;8.15;;;9.50;93.00;;;;;;5073877;28;20028;-50
2023/12/17 04:47:50;;;;;;;10.93;7.63;;;9.40;93.10;;;;;;5073239;28;20028;-50
2023/12/17 04:50:17;;;;;;;10.93;7.15;;;9.40;93.10;;;;;;5073037;28;20032;-50
2023/12/17 04:52:43;;;;;;;16.15;7.00;;;9.40;93.20;;;;;;5073480;28;20021;-49
2023/12/17 04:55:11;;;;;;;11.30;7.32;;;9.50;93.20;;;;;;5073411;28;20035;-50
2023/12/17 04:57:40;;;;;;;19.35;8.18;;;9.50;93.10;;;;;;5072916;28;20030;-50
2023/12/17 05:00:06;;;;;;;13.27;8.73;;;9.40;93.10;;;;;;5073520;28;20099;-50
2023/12/17 05:02:32;;;;;;;15.05;7.45;;;9.40;93.20;;;;;;5072559;28;20029;-52
2023/12/17 05:05:00;;;;;;;13.02;7.55;;;9.40;93.20;;;;;;5073120;28;20029;-49
2023/12/17 05:07:26;;;;;;;10.43;6.70;;;9.40;93.20;;;;;;5067833;28;20041;-53
2023/12/17 05:09:53;;;;;;;9.77;7.20;;;9.40;93.20;;;;;;5053342;28;20033;-51
2023/12/17 05:12:22;;;;;;;11.50;7.65;;;9.40;93.10;;;;;;5053564;28;20040;-51
2023/12/17 05:14:48;;;;;;;9.25;6.88;;;9.40;93.00;;;;;;5052586;28;20021;-49
2023/12/17 05:17:15;;;;;;;11.15;7.22;;;9.40;93.00;;;;;;5035020;28;20032;-51
2023/12/17 05:19:41;;;;;;;9.55;6.47;;;9.40;93.00;;;;;;5052512;28;20025;-52
2023/12/17 05:22:07;;;;;;;11.40;7.15;;;9.50;93.00;;;;;;5053150;28;20078;-49
2023/12/17 05:24:35;;;;;;;8.90;6.90;;;9.50;92.90;;;;;;5057604;28;20139;-49
2023/12/17 05:27:03;;;;;;;7.90;6.43;;;9.50;92.80;;;;;;5034921;28;20043;-51
2023/12/17 05:29:30;;;;;;;12.43;6.90;;;9.50;92.80;;;;;;5053225;28;20032;-51
2023/12/17 05:31:58;;;;;;;11.68;7.22;;;9.50;92.70;;;;;;5052854;28;20021;-52
2023/12/17 05:34:25;;;;;;;10.25;6.38;;;9.50;92.50;;;;;;5052355;28;20017;-49
2023/12/17 05:36:51;;;;;;;9.98;6.70;;;9.50;92.40;;;;;;5035679;28;20343;-51
2023/12/17 05:39:16;;;;;;;15.40;6.88;;;9.50;92.40;;;;;;5052565;28;20044;-50
2023/12/17 05:41:43;;;;;;;10.82;7.20;;;9.60;92.40;;;;;;5052785;28;20036;-49
2023/12/17 05:44:10;;;;;;;10.30;6.47;;;9.50;92.40;;;;;;5053011;28;20052;-51
2023/12/17 05:46:37;;;;;;;9.38;6.07;;;9.50;92.30;;;;;;5052119;28;20099;-51
2023/12/17 05:49:03;;;;;;;9.65;6.25;;;9.50;92.30;;;;;;5052178;28;20538;-52
2023/12/17 05:51:29;;;;;;;7.28;5.40;;;9.50;92.30;;;;;;5053335;28;20194;-52
2023/12/17 05:53:55;;;;;;;8.70;5.78;;;9.50;92.30;;;;;;5056227;28;20033;-50
2023/12/17 05:56:22;;;;;;;13.30;6.88;;;9.50;92.20;;;;;;5054892;28;20052;-49
2023/12/17 05:58:49;;;;;;;12.73;5.85;;;9.50;92.20;;;;;;5056696;28;20020;-49
2023/12/17 06:01:15;;;;;;;13.45;7.10;;;9.50;92.10;;;;;;5056667;28;20057;-49
2023/12/17 06:03:43;;;;;;;13.43;8.60;;;9.50;92.10;;;;;;5055736;28;20147;-53
2023/12/17 06:06:10;;;;;;;12.15;7.00;;;9.50;92.10;;;;;;5055373;28;20154;-49
2023/12/17 06:08:35;;;;;;;12.52;6.30;;;9.50;92.00;;;;;;5052423;28;20048;-50
2023/12/17 06:11:01;;;;;;;10.13;6.65;;;9.50;92.00;;;;;;5075679;28;20038;-52
2023/12/17 06:13:27;;;;;;;11.50;6.20;;;9.50;92.00;;;;;;5068161;28;20024;-52
2023/12/17 06:15:52;;;;;;;12.95;6.28;;;9.40;92.00;;;;;;5058857;28;20024;-50
2023/12/17 06:18:19;;;;;;;11.40;6.47;;;9.40;92.00;;;;;;5075806;28;20028;-52
2023/12/17 06:20:46;;;;;;;8.68;5.78;;;9.40;91.90;;;;;;5076155;28;20141;-48
2023/12/17 06:23:14;;;;;;;12.00;6.10;;;9.40;91.90;;;;;;5079269;28;20146;-49
2023/12/17 06:25:40;;;;;;;14.77;6.38;;;9.40;91.80;;;;;;5096007;28;20062;-52
2023/12/17 06:28:07;;;;;;;9.77;5.63;;;9.40;91.90;;;;;;5091581;28;20430;-51
2023/12/17 06:30:35;;;;;;;11.80;6.13;;;9.40;92.00;;;;;;5075524;28;20058;-49
2023/12/17 06:33:03;;;;;;;13.30;6.00;;;9.40;92.00;;;;;;5075856;28;20075;-49
2023/12/17 06:35:30;;;;;;;11.68;6.60;;;9.40;92.10;;;;;;5075645;28;20091;-49
2023/12/17 06:37:55;;;;;;;13.20;6.20;;;9.40;92.00;;;;;;5075438;28;20100;-49
2023/12/17 06:40:22;;;;;;;9.55;6.60;;;9.40;91.90;;;;;;5075631;28;20032;-50
2023/12/17 06:42:50;;;;;;;8.43;5.88;;;9.40;92.00;;;;;;5074974;28;20099;-50
2023/12/17 06:45:18;;;;;;;14.00;6.75;;;9.40;92.00;;;;;;5075165;28;20066;-52
2023/12/17 06:47:45;;;;;;;9.02;6.30;;;9.40;92.10;;;;;;5058060;28;20487;-51
2023/12/17 06:50:11;;;;;;;9.73;6.75;;;9.30;92.10;;;;;;5075236;28;20041;-49
2023/12/17 06:52:38;;;;;;;13.23;6.85;;;9.30;92.10;;;;;;5075538;28;20025;-49
2023/12/17 06:55:07;;;;;;;8.63;6.15;;;9.30;92.20;;;;;;5074869;28;20075;-48
2023/12/17 06:57:34;;;;;;;11.88;6.80;;;9.30;92.10;;;;;;5075202;28;20082;-48
2023/12/17 07:00:01;;;;;;;12.90;7.50;;;9.30;92.00;;;;;;5075208;28;20546;-49
2023/12/17 07:02:28;;;;;;;8.80;7.25;;;9.30;91.90;;;;;;5075395;28;20034;-49
2023/12/17 07:04:55;;;;;;;11.57;7.25;;;9.40;91.90;;;;;;5074167;28;20485;-49
2023/12/17 07:07:22;;;;;;;14.55;7.03;;;9.30;91.80;;;;;;5074758;28;20083;-48
2023/12/17 07:09:53;;;;;;;13.68;7.32;;;9.30;91.80;;;;;;5075094;28;20075;-50
2023/12/17 07:12:20;;;;;;;9.75;7.03;;;9.30;91.80;;;;;;5065585;28;20564;-48
2023/12/17 07:14:48;;;;;;;13.35;8.40;;;9.30;91.80;;;;;;5090198;28;20353;-50
2023/12/17 07:17:15;;;;;;;10.07;7.40;;;9.30;91.80;;;;;;5095162;28;20034;-49
2023/12/17 07:19:43;;;;;;;10.27;7.50;;;9.30;91.70;;;;;;5094518;28;20052;-50
2023/12/17 07:22:10;;;;;;;15.27;8.82;;;9.20;91.80;;;;;;5095295;28;20380;-52
2023/12/17 07:24:37;;;;;;;13.27;8.18;;;9.30;91.80;;;;;;5108533;28;20475;-51
2023/12/17 07:27:04;;;;;;;15.25;8.18;;;9.30;91.80;;;;;;5115039;28;20440;-48
2023/12/17 07:29:31;;;;;;;13.63;8.25;;;9.20;91.80;;;;;;5079966;28;20028;-51
2023/12/17 07:31:58;;;;;;;14.73;7.93;;;9.20;91.80;;;;;;5074445;28;20116;-48
2023/12/17 07:34:26;;;;;;;11.70;7.63;;;9.20;91.80;;;;;;5074481;28;20028;-50
2023/12/17 07:36:53;;;;;;;13.45;8.27;;;9.30;91.70;;;;;;5074418;28;20036;-52
2023/12/17 07:39:20;;;;;;;12.65;8.48;;;9.20;91.70;;;;;;5073184;28;20377;-48
2023/12/17 07:41:46;;;;;;;10.77;8.50;;;9.30;91.70;;;;;;5075006;28;20039;-50
2023/12/17 07:44:12;;;;;;;12.85;9.05;;;9.30;91.60;;;;;;5074086;28;20465;-51
2023/12/17 07:46:39;;;;;;;13.75;9.50;;;9.20;91.60;;;;;;5074505;28;20047;-48
2023/12/17 07:49:06;;;;;;;13.55;9.57;;;9.20;91.50;;;;;;5074161;28;20458;-50
2023/12/17 07:51:33;;;;;;;13.18;10.15;;;9.30;91.30;;;;;;5074740;28;20093;-50
2023/12/17 07:54:01;;;;;;;12.23;9.48;;;9.20;91.40;;;;;;5074322;28;20075;-52
2023/12/17 07:56:28;;;;;;;14.13;10.55;;;9.30;91.50;;;;;;5094057;28;20035;-48
2023/12/17 07:58:56;;;;;;;16.20;11.32;;;9.20;91.60;;;;;;5094553;28;20032;-50
2023/12/17 08:01:34;;;;;;;16.60;11.25;;;9.20;91.70;;;;;;5088815;28;20040;-51
2023/12/17 08:04:05;;;;;;;17.92;10.82;;;9.20;91.60;;;;;;5074228;28;20094;-49
2023/12/17 08:06:32;;;;;;;15.95;11.48;;;9.20;91.50;;;;;;5074545;28;20094;-49
2023/12/17 08:09:00;;;;;;;15.38;12.02;;;9.20;91.40;;;;;;5072855;28;20523;-49
2023/12/17 08:11:28;;;;;;;12.88;9.95;;;9.20;91.50;;;;;;5073710;28;20039;-49
2023/12/17 08:13:56;;;;;;;20.95;10.73;;;9.30;91.30;;;;;;5074051;28;20048;-50
2023/12/17 08:16:23;;;;;;;15.98;9.65;;;9.20;91.20;;;;;;5073762;28;20394;-52
2023/12/17 08:18:50;;;;;;;12.50;8.25;;;9.20;91.30;;;;;;5093600;28;20024;-49
2023/12/17 08:21:15;;;;;;;22.08;9.32;;;9.20;91.20;;;;;;5093999;28;20039;-50
2023/12/17 08:23:42;;;;;;;11.88;8.85;;;9.20;91.30;;;;;;5093573;28;20024;-48
2023/12/17 08:26:10;;;;;;;15.68;8.10;;;9.20;91.30;;;;;;5090000;28;20523;-48
2023/12/17 08:28:37;;;;;;;;;;;9.20;91.30;;;;;;5056831;28;20033;-50
2023/12/17 08:31:09;;;;;;;12.77;7.90;;;9.20;91.20;;;;;;5073348;28;20253;-49
2023/12/17 08:33:36;;;;;;;11.98;8.02;;;9.20;91.20;;;;;;5074010;28;20043;-49
2023/12/17 08:36:02;;;;;;;11.23;8.48;;;9.20;91.10;;;;;;5055960;28;20024;-51
2023/12/17 08:38:31;;;;;;;12.77;8.13;;;9.20;91.00;;;;;;5073343;28;20016;-48
2023/12/17 08:40:56;;;;;;;13.40;7.20;;;9.30;91.00;;;;;;5072189;28;20044;-49
2023/12/17 08:43:25;;;;;;;9.43;7.30;;;9.30;91.00;;;;;;5073677;28;20032;-50
2023/12/17 08:45:51;;;;;;;14.82;7.45;;;9.20;91.00;;;;;;5073297;28;20024;-48
2023/12/17 08:48:17;;;;;;;11.45;8.00;;;9.20;91.00;;;;;;5072995;28;20116;-49
2023/12/17 08:50:44;;;;;;;12.35;7.55;;;9.20;91.10;;;;;;5070259;28;20107;-49
2023/12/17 08:53:12;;;;;;;15.63;7.07;;;9.20;91.20;;;;;;5073011;28;20047;-50
2023/12/17 08:55:38;;;;;;;10.13;6.75;;;9.20;91.30;;;;;;5059113;28;20107;-49
2023/12/17 08:58:05;;;;;;;12.75;7.85;;;9.20;91.40;;;;;;5069839;28;20112;-49
2023/12/17 09:00:33;;;;;;;15.75;6.80;;;9.20;91.40;;;;;;5055176;28;20025;-49
2023/12/17 09:03:00;;;;;;;11.48;7.25;;;9.20;91.40;;;;;;5072293;28;20035;-49
2023/12/17 09:05:26;;;;;;;10.10;6.32;;;9.20;91.40;;;;;;5072271;28;20027;-49
2023/12/17 09:07:53;;;;;;;12.25;6.88;;;9.30;91.40;;;;;;5064238;28;20422;-48
2023/12/17 09:10:23;;;;;;;13.40;6.03;;;9.20;91.40;;;;;;5052358;28;20028;-48
2023/12/17 09:12:56;;;;;;;14.20;6.97;;;9.30;91.50;;;;;;5052725;28;20029;-48
2023/12/17 09:15:22;;;;;;;;;;;9.30;91.60;;;;;;5053294;28;20040;-48
2023/12/17 09:17:55;;;;;;;10.43;5.93;;;9.30;91.50;;;;;;5036405;28;20358;-50
2023/12/17 09:20:21;;;;;;;16.23;8.13;;;9.30;91.50;;;;;;5052691;28;20029;-50
2023/12/17 09:22:47;;;;;;;8.88;6.00;;;9.30;91.40;;;;;;5035757;28;20033;-48
2023/12/17 09:25:15;;;;;;;12.57;6.95;;;9.30;91.40;;;;;;5072336;28;20478;-51
2023/12/17 09:27:42;;;;;;;13.18;6.15;;;9.30;91.50;;;;;;5050336;28;20094;-50
2023/12/17 09:30:10;;;;;;;13.02;7.25;;;9.30;91.50;;;;;;5052526;28;20071;-49
2023/12/17 09:32:36;;;;;;;8.85;6.30;;;9.30;91.50;;;;;;5051597;28;20033;-49
2023/12/17 09:35:02;;;;;;;16.98;7.53;;;9.40;91.50;;;;;;5052919;28;20405;-49
2023/12/17 09:37:30;;;;;;;13.55;6.57;;;9.40;91.30;;;;;;5052862;28;20021;-50
2023/12/17 09:39:57;;;;;;;14.15;6.10;;;9.40;91.30;;;;;;5052701;28;20027;-48
2023/12/17 09:42:24;;;;;;;18.60;9.30;;;9.40;91.30;;;;;;5035008;28;20115;-54
2023/12/17 09:44:51;;;;;;;13.32;6.35;;;9.40;91.30;;;;;;5052609;28;20458;-50
2023/12/17 09:47:17;;;;;;;12.68;7.45;;;9.40;91.20;;;;;;5052405;28;20070;-51
2023/12/17 09:49:44;;;;;;;11.52;8.15;;;9.40;91.20;;;;;;5053124;28;20409;-49
2023/12/17 09:52:12;;;;;;;12.68;7.60;;;9.40;91.10;;;;;;5052264;28;20037;-50
2023/12/17 09:54:39;;;;;;;12.43;7.43;;;9.40;91.00;;;;;;5034639;28;20342;-51
2023/12/17 09:57:09;;;;;;;10.40;8.30;;;9.40;91.10;;;;;;5034928;28;20051;-52
2023/12/17 09:59:35;;;;;;;;;;;9.40;91.00;;;;;;5053270;28;20096;-49
2023/12/17 10:02:04;;;;;;;10.82;8.27;;;9.50;91.00;;;;;;5052478;28;19912;-49
2023/12/17 10:04:31;;;;;;;13.40;8.93;;;9.50;90.90;;;;;;5052519;28;20033;-49
2023/12/17 10:06:59;;;;;;;13.40;8.05;;;9.50;91.00;;;;;;5053016;28;20036;-48
2023/12/17 10:09:26;;;;;;;16.50;9.90;;;9.50;90.90;;;;;;5072633;28;20404;-49
2023/12/17 10:11:55;;;;;;;10.45;8.75;;;9.50;90.70;;;;;;5071964;28;20029;-50
2023/12/17 10:14:24;;;;;;;12.20;9.25;;;9.50;90.90;;;;;;5072712;28;20396;-48
2023/12/17 10:16:54;;;;;;;10.63;8.48;;;9.50;90.80;;;;;;5054408;28;20047;-48
2023/12/17 10:19:21;;;;;;;13.25;8.95;;;9.60;90.70;;;;;;5072851;28;20071;-48
2023/12/17 10:21:47;;;;;;;18.83;11.40;;;9.60;90.70;;;;;;5072008;28;20054;-50
2023/12/17 10:24:14;;;;;;;14.55;9.63;;;9.60;90.60;;;;;;5094930;28;20384;-48
2023/12/17 10:26:48;;;;;;;14.35;10.65;;;9.60;90.70;;;;;;5096985;28;20507;-50
2023/12/17 10:29:33;;;;;;;14.85;9.45;;;9.70;90.80;;;;;;5053007;28;20061;-48
2023/12/17 10:31:59;;;;;;;16.23;9.55;;;9.60;90.60;;;;;;5072110;28;20025;-49
2023/12/17 10:34:28;;;;;;;16.77;9.15;;;9.60;90.60;;;;;;5071947;28;20408;-48
2023/12/17 10:36:57;;;;;;;15.02;9.95;;;9.60;90.50;;;;;;5055229;28;20040;-49
2023/12/17 10:39:27;;;;;;;16.48;10.10;;;9.60;90.50;;;;;;5074356;28;20039;-49
2023/12/17 10:41:57;;;;;;;19.73;11.18;;;9.60;90.50;;;;;;5075613;28;20029;-48
2023/12/17 10:44:27;;;;;;;14.07;9.52;;;9.50;90.50;;;;;;5064145;28;20076;-48
2023/12/17 10:46:53;;;;;;;;;;;9.50;90.40;;;;;;5075893;28;20035;-49
2023/12/17 10:49:21;;;;;;;13.57;9.45;;;9.50;90.60;;;;;;5043239;28;19924;-49
2023/12/17 10:51:48;;;;;;;16.20;9.48;;;9.50;90.40;;;;;;5054050;28;20063;-48
2023/12/17 10:54:15;;;;;;;12.95;9.45;;;9.50;90.60;;;;;;5039568;28;20129;-51
2023/12/17 10:56:52;;;;;;;13.93;9.55;;;9.50;90.60;;;;;;5061023;28;20457;-50
2023/12/17 10:59:30;;;;;;;11.80;9.25;;;9.50;90.70;;;;;;5056617;28;20418;-50
2023/12/17 11:02:00;;;;;;;13.98;9.70;;;9.50;90.70;;;;;;5058786;28;20051;-50
2023/12/17 11:04:27;;;;;;;20.98;9.65;;;9.50;90.80;;;;;;5057896;28;20033;-53
2023/12/17 11:06:55;;;;;;;12.68;8.23;;;9.50;90.80;;;;;;5057920;28;20421;-49
2023/12/17 11:09:22;;;;;;;18.00;8.30;;;9.60;90.50;;;;;;5074696;28;20060;-49
2023/12/17 11:11:51;;;;;;;12.88;8.55;;;9.60;90.40;;;;;;5074880;28;20036;-49
2023/12/17 11:14:18;;;;;;;;;;;9.60;90.60;;;;;;5075763;28;20032;-51
2023/12/17 11:16:45;;;;;;;17.63;9.57;;;9.60;90.60;;;;;;5074694;28;20337;-50
2023/12/17 11:19:13;;;;;;;15.40;8.60;;;9.60;90.60;;;;;;5058455;28;20105;-52
2023/12/17 11:21:41;;;;;;;17.58;10.07;;;9.60;90.60;;;;;;5075163;28;20047;-48
2023/12/17 11:24:11;;;;;;;18.05;10.02;;;9.70;90.50;;;;;;5058102;28;20032;-49
2023/12/17 11:26:44;;;;;;;13.40;9.13;;;9.70;90.40;;;;;;5074712;28;20033;-49
2023/12/17 11:29:38;;;;;;;15.95;10.30;;;9.80;90.40;;;;;;5064733;28;20033;-49
2023/12/17 11:32:08;;;;;;;17.20;10.70;;;9.70;90.50;;;;;;5071889;28;20119;-49
2023/12/17 11:34:36;;;;;;;20.63;10.70;;;9.70;90.60;;;;;;5057633;28;20394;-50
2023/12/17 11:37:03;;;;;;;16.55;11.20;;;9.70;90.70;;;;;;5056912;28;20028;-50
2023/12/17 11:39:30;;;;;;;18.92;10.52;;;9.60;90.60;;;;;;5074424;28;20028;-49
2023/12/17 11:41:58;;;;;;;16.90;11.75;;;9.70;90.70;;;;;;5057513;28;20032;-50
2023/12/17 11:44:26;;;;;;;21.40;10.57;;;9.70;90.50;;;;;;5074774;28;20394;-48
2023/12/17 11:46:54;;;;;;;20.25;11.68;;;9.80;90.60;;;;;;5074345;28;20039;-48
2023/12/17 11:49:24;;;;;;;16.75;11.25;;;9.80;90.60;;;;;;5073934;28;20032;-48
2023/12/17 11:51:52;;;;;;;16.85;10.70;;;9.80;90.40;;;;;;5074562;28;20412;-49
2023/12/17 11:54:27;;;;;;;15.65;10.40;;;9.90;90.50;;;;;;5056755;28;20036;-50
2023/12/17 11:56:54;;;;;;;18.85;11.77;;;9.90;90.40;;;;;;5074198;28;20028;-50
2023/12/17 11:59:33;;;;;;;21.58;11.55;;;9.90;90.30;;;;;;5074646;28;20259;-51
2023/12/17 12:02:02;;;;;;;16.30;11.82;;;9.90;90.10;;;;;;5074237;28;20025;-49
2023/12/17 12:04:40;;;;;;;17.80;10.85;;;9.90;90.10;;;;;;5074222;28;20081;-50
2023/12/17 12:07:08;;;;;;;16.70;12.27;;;9.90;90.30;;;;;;5073675;28;20048;-48
2023/12/17 12:09:36;;;;;;;22.90;12.30;;;9.90;90.30;;;;;;5039811;28;20036;-52
2023/12/17 12:12:26;;;;;;;20.95;11.40;;;9.80;90.50;;;;;;5073791;28;20056;-50
2023/12/17 12:14:54;;;;;;;17.88;12.55;;;9.90;90.40;;;;;;5073832;28;20123;-50
2023/12/17 12:17:39;;;;;;;18.35;11.73;;;9.90;90.20;;;;;;5074209;28;20048;-48
2023/12/17 12:20:24;;;;;;;20.25;12.75;;;9.90;89.70;;;;;;5073857;28;20021;-49
2023/12/17 12:22:51;;;;;;;14.98;12.10;;;9.70;89.60;;;;;;5074814;28;20055;-48
2023/12/17 12:25:21;;;;;;;21.25;12.95;;;9.70;89.80;;;;;;5093843;28;20028;-51
2023/12/17 12:27:48;;;;;;;21.15;14.40;;;9.70;90.00;;;;;;5093703;28;20035;-49
2023/12/17 12:30:32;;;;;;;21.55;14.73;;;9.70;90.00;;;;;;5088709;28;20043;-49
2023/12/17 12:33:15;;;;;;;20.70;15.65;;;9.70;90.20;;;;;;5073113;28;20461;-49
2023/12/17 12:35:50;;;;;;;20.25;15.07;;;9.70;90.20;;;;;;5055938;28;20035;-49
2023/12/17 12:38:27;;;;;;;26.58;16.48;;;9.60;90.10;;;;;;5073192;28;20090;-48
2023/12/17 12:40:57;;;;;;;26.15;18.42;;;9.70;90.10;;;;;;5071960;28;20517;-48
2023/12/17 12:43:24;;;;;;;25.67;17.25;;;9.70;90.00;;;;;;5073231;28;20060;-52
2023/12/17 12:45:55;;;;;;;26.20;17.08;;;9.70;90.00;;;;;;5073449;28;20044;-49
2023/12/17 12:48:23;;;;;;;24.70;15.45;;;9.70;89.70;;;;;;5055640;28;20036;-51
2023/12/17 12:50:52;;;;;;;21.13;16.20;;;9.70;89.80;;;;;;5073434;28;20094;-52